NCAR-RAP Real-Time Weather Data

Output produced by METARs form (10 April 2020  06:45 UTC)
found at http://weather.rap.ucar.edu/surface/
 
KSJT 100551Z AUTO 32003KT 10SM CLR 14/12 A3002 RMK AO2 SLP150 T01390122 10228 20128 402610128 51007
KSJT 100451Z AUTO 16003KT 10SM CLR 14/13 A3001 RMK AO2 SLP148 T01390128
KSJT 100351Z AUTO 11004KT 10SM CLR 14/13 A3001 RMK AO2 SLP149 T01440128
KSJT 100251Z AUTO 04006KT 10SM CLR 17/14 A2999 RMK AO2 SLP144 T01670139 53025
KSJT 100151Z AUTO 05010KT 10SM SCT095 BKN110 18/14 A2996 RMK AO2 SLP133 T01780139
KSJT 100051Z 04013KT 10SM SCT090 OVC110 19/15 A2995 RMK AO2 SLP128 T01890150
KSJT 092351Z 00000KT 10SM BKN110 23/17 A2992 RMK AO2 RAE04 SLP116 P0000 60004 T02280167 10261 20222 53008
KSJT 092251Z 00000KT 10SM -RA FEW043 BKN050 OVC090 22/17 A2991 RMK AO2 RAB2153 SLP113 P0003 T02220172
KSJT 092151Z 20006KT 10SM OVC095 23/16 A2990 RMK AO2 RAB20E39 SLP109 P0001 T02330161
KSJT 092051Z 09008KT 10SM FEW038 FEW080 OVC110 25/13 A2989 RMK AO2 SLP106 60000 T02500128 56023
KSJT 091951Z 04006KT 10SM SCT100 26/14 A2991 RMK AO2 SLP112 T02610139
KSJT 091851Z 05008KT 10SM FEW090 BKN110 24/14 A2994 RMK AO2 RAB1759E25 SLP121 P0000 T02390139
KSJT 091751Z 01005KT 10SM BKN100 25/16 A2997 RMK AO2 SLP128 60000 T02500161 10256 20161 58001
KSJT 091651Z 30005KT 10SM CLR 25/16 A2998 RMK AO2 SLP133 T02500156
KSJT 091551Z 32004KT 10SM FEW055 BKN100 21/15 A2996 RMK AO2 LTG DSNT N AND NE RAB26E36 SLP129 P0000 T02110150
KSJT 091531Z 01004KT 10SM VCTS -RA FEW055 BKN095 OVC110 19/14 A2996 RMK AO2 RAB26 P0000 T01890144
KSJT 091451Z 00000KT 10SM BKN110 21/12 A2997 RMK AO2 SLP131 T02060122 53023
KSJT 091351Z 18004KT 10SM CLR 19/12 A2994 RMK AO2 SLP119 T01890122
KSJT 091251Z 00000KT 10SM CLR 17/12 A2993 RMK AO2 SLP115 T01670117
KSJT 091151Z 22005KT 10SM CLR 16/11 A2990 RMK AO2 SLP103 T01610106 10189 20150 56005
KSJT 091051Z AUTO 23006KT 10SM CLR 16/11 A2990 RMK AO2 SLP102 T01610106
KSJT 090951Z AUTO 27005KT 10SM CLR 16/10 A2991 RMK AO2 SLP106 T01560100
KSJT 090851Z AUTO 21004KT 10SM CLR 16/09 A2991 RMK AO2 SLP107 T01610094 56011
KSJT 090751Z AUTO 25006KT 10SM CLR 16/09 A2992 RMK AO2 SLP109 T01560094